createdAt,value
2022-10-14T00:55:47.072Z,32.30
2022-10-14T00:58:39.404Z,27.08
2022-10-14T01:32:24.525Z,32.85
2022-10-14T01:35:51.349Z,37.33
2022-10-14T04:07:53.809Z,31.60
2022-10-14T04:10:24.750Z,28.98
2022-10-14T04:12:55.914Z,30.13
2022-10-14T04:19:42.435Z,28.20
2022-10-14T04:22:10.286Z,29.52
2022-10-14T04:24:53.416Z,27.70
2022-10-14T05:24:41.951Z,33.08
2022-10-14T05:27:08.638Z,33.47
2022-10-14T05:32:55.773Z,37.17
2022-10-14T05:34:55.390Z,33.13
2022-10-14T05:37:23.163Z,39.53
2022-10-14T05:39:57.989Z,42.45
2022-10-14T06:42:00.213Z,25.85
2022-10-14T06:44:27.833Z,27.17
2022-10-14T06:54:54.136Z,32.50
2022-10-14T06:57:20.802Z,37.22
2022-10-14T06:59:47.438Z,32.45
2022-10-14T07:02:14.453Z,28.83
2022-10-14T07:04:41.542Z,29.52
2022-10-14T07:07:08.588Z,26.45
2022-10-14T07:13:35.213Z,26.83
2022-10-14T07:16:02.181Z,24.02
2022-10-14T07:18:31.407Z,24.30
2022-10-14T07:21:02.816Z,24.20
2022-10-14T07:23:29.325Z,31.45
2022-10-14T07:25:57.609Z,35.38
2022-10-14T07:28:24.483Z,28.15
2022-10-14T07:31:07.417Z,25.20
2022-10-14T07:36:15.112Z,22.15
2022-10-14T07:38:44.466Z,23.55
2022-10-14T07:41:19.769Z,24.33
2022-10-14T07:43:48.568Z,23.62
2022-10-14T07:46:17.831Z,25.77
2022-10-14T07:48:56.599Z,22.87
2022-10-14T07:51:24.383Z,21.60
2022-10-14T07:53:52.993Z,23.90
2022-10-14T07:56:20.573Z,27.58
2022-10-14T07:58:48.384Z,22.30
2022-10-14T08:01:16.257Z,25.77
2022-10-14T08:03:43.732Z,25.58
2022-10-14T08:06:11.492Z,22.58
2022-10-14T08:08:38.622Z,21.87
2022-10-14T08:11:12.482Z,24.35
2022-10-14T08:13:43.383Z,22.98
2022-10-14T08:16:19.781Z,23.90
2022-10-14T08:18:47.662Z,27.37
2022-10-14T08:21:14.948Z,20.08
2022-10-14T08:23:41.557Z,25.60
2022-10-14T08:26:20.045Z,26.55
2022-10-14T08:28:47.731Z,23.95
2022-10-14T08:31:14.685Z,25.17
2022-10-14T08:33:41.298Z,22.70
2022-10-14T08:36:08.431Z,22.37
2022-10-14T08:38:35.188Z,21.83
2022-10-14T08:41:16.865Z,26.60
2022-10-14T08:44:23.070Z,21.40
2022-10-14T08:47:05.211Z,24.05
2022-10-14T08:50:05.145Z,20.60
2022-10-14T08:52:46.889Z,19.95
2022-10-14T08:55:37.819Z,24.27
2022-10-14T09:01:30.394Z,24.25
2022-10-14T09:03:59.870Z,19.87
2022-10-14T09:06:29.682Z,21.45
2022-10-14T09:09:17.258Z,22.52
2022-10-14T09:11:48.832Z,24.60
2022-10-14T09:14:22.437Z,18.12
2022-10-14T09:17:15.818Z,21.48
2022-10-14T09:19:48.143Z,21.00
2022-10-14T09:22:15.761Z,25.30
2022-10-14T09:24:46.198Z,29.37
2022-10-14T09:27:18.721Z,22.33
2022-10-14T09:29:59.809Z,24.45
2022-10-14T09:36:20.944Z,21.05
2022-10-14T09:38:52.993Z,22.65
2022-10-14T09:41:30.360Z,25.95
2022-10-14T09:44:18.750Z,24.58
2022-10-14T09:47:02.532Z,21.50
2022-10-14T09:49:34.942Z,27.15
2022-10-14T09:52:26.022Z,19.37
2022-10-14T09:54:58.912Z,23.62
2022-10-14T09:57:26.109Z,23.38
2022-10-14T10:00:00.647Z,24.33
2022-10-14T10:02:42.662Z,22.45
2022-10-14T10:05:22.689Z,20.80
2022-10-14T10:11:33.406Z,20.90
2022-10-14T10:14:15.223Z,20.08
2022-10-14T10:16:42.232Z,20.48
2022-10-14T10:19:20.939Z,23.62
2022-10-14T10:21:47.935Z,20.80
2022-10-14T10:24:26.056Z,18.33
2022-10-14T10:27:31.262Z,26.10
2022-10-14T10:30:14.926Z,25.17
2022-10-14T10:32:54.794Z,29.23
2022-10-14T10:35:36.968Z,23.62
2022-10-14T10:38:20.699Z,23.52
2022-10-14T10:41:53.241Z,21.10
2022-10-14T10:45:22.670Z,23.80
2022-10-14T10:48:10.109Z,20.40
2022-10-14T11:00:33.578Z,18.85
2022-10-14T11:03:31.200Z,22.05
2022-10-14T11:06:10.355Z,20.45
2022-10-14T11:09:37.287Z,20.62
2022-10-14T11:12:15.751Z,18.30
2022-10-14T11:15:25.428Z,18.73
2022-10-14T11:18:03.306Z,19.23
2022-10-14T11:20:37.206Z,16.27
2022-10-14T11:23:41.280Z,19.40
2022-10-14T11:26:32.404Z,18.02
2022-10-14T11:35:55.766Z,19.90
2022-10-14T11:38:50.134Z,19.62
2022-10-14T11:41:53.350Z,18.90
2022-10-14T11:44:51.373Z,19.83
2022-10-14T11:47:27.750Z,17.00
2022-10-14T11:49:59.673Z,17.35
2022-10-14T11:52:35.247Z,19.75
2022-10-14T11:55:29.147Z,18.00
2022-10-14T11:58:03.443Z,20.05
2022-10-14T12:00:52.252Z,18.20
2022-10-14T12:03:34.228Z,20.10
2022-10-14T12:06:23.122Z,21.53
2022-10-14T12:09:03.986Z,20.27
2022-10-14T12:11:55.096Z,18.87
2022-10-14T12:14:35.190Z,19.40
2022-10-14T12:20:37.813Z,24.17
2022-10-14T12:23:08.368Z,57.35
2022-10-14T12:25:45.516Z,25.98
2022-10-14T12:28:14.061Z,21.58
2022-10-14T12:30:42.034Z,30.70
2022-10-14T12:33:11.086Z,18.80
2022-10-14T12:39:31.418Z,20.52
2022-10-14T12:41:57.880Z,20.85
2022-10-14T12:44:32.837Z,20.52
2022-10-14T12:46:59.560Z,19.50
2022-10-14T12:49:34.821Z,20.65
2022-10-14T12:52:06.182Z,22.37
2022-10-14T12:54:47.690Z,22.62
2022-10-14T13:09:11.617Z,21.10
2022-10-14T13:11:53.290Z,22.10
2022-10-14T13:14:27.062Z,21.65
2022-10-14T13:16:53.585Z,50.47
2022-10-14T13:19:39.534Z,43.38
2022-10-14T13:22:33.137Z,34.42
2022-10-14T13:25:14.522Z,26.23
2022-10-14T13:27:49.657Z,22.30
2022-10-14T13:30:34.083Z,20.85
2022-10-14T13:33:32.156Z,19.60
2022-10-14T13:36:16.948Z,21.50
2022-10-14T13:38:51.544Z,20.73
2022-10-14T13:41:30.831Z,21.35
2022-10-14T13:43:59.725Z,20.88
2022-10-14T13:46:37.017Z,20.08
2022-10-14T13:49:06.871Z,17.98
2022-10-14T13:51:42.541Z,18.27
2022-10-14T13:54:16.147Z,18.02
2022-10-14T13:56:43.069Z,25.35
2022-10-14T13:59:43.780Z,23.25
2022-10-14T14:02:17.918Z,20.25
2022-10-14T14:05:05.457Z,21.57
2022-10-14T14:08:14.110Z,19.50
2022-10-14T14:10:26.543Z,20.43
2022-10-14T14:12:53.329Z,23.60
2022-10-14T14:15:29.110Z,21.00
2022-10-14T14:17:55.784Z,21.67
2022-10-14T14:20:25.330Z,18.00
2022-10-14T14:22:51.951Z,19.85
2022-10-14T14:25:35.846Z,20.50
2022-10-14T14:28:07.822Z,21.62
2022-10-14T14:30:37.621Z,20.60
2022-10-14T14:33:11.101Z,21.87
2022-10-14T14:35:37.900Z,19.25
2022-10-14T14:38:04.543Z,20.17
2022-10-14T14:40:31.911Z,17.67
2022-10-14T14:43:03.511Z,18.55
2022-10-14T14:45:42.587Z,19.40
2022-10-14T14:48:15.486Z,20.95
2022-10-14T14:50:44.177Z,19.08
2022-10-14T14:53:15.783Z,19.23
2022-10-14T14:56:00.296Z,19.95
2022-10-14T14:58:29.897Z,20.70
2022-10-14T15:00:56.974Z,20.73
2022-10-14T15:03:26.603Z,21.87
2022-10-14T15:06:05.678Z,18.05
2022-10-14T15:11:21.280Z,19.30
2022-10-14T15:14:00.111Z,19.77
2022-10-14T15:16:55.662Z,21.83
2022-10-14T15:19:35.589Z,18.70
2022-10-14T15:22:26.966Z,22.85
2022-10-14T15:25:08.680Z,20.17
2022-10-14T15:27:37.832Z,18.85
2022-10-14T15:30:19.917Z,19.12
2022-10-14T15:32:47.232Z,19.50
2022-10-14T15:35:16.309Z,20.52
2022-10-14T15:40:56.291Z,20.12
2022-10-14T15:43:27.866Z,17.60
2022-10-14T15:46:15.163Z,25.67
2022-10-14T15:48:48.811Z,19.70
2022-10-14T15:51:20.322Z,22.15
2022-10-14T15:53:49.232Z,21.95
2022-10-14T15:56:17.126Z,20.30
2022-10-14T15:58:44.292Z,22.23
2022-10-14T16:03:51.929Z,23.70
2022-10-14T16:06:19.439Z,22.37
2022-10-14T16:08:48.917Z,27.20
2022-10-14T16:11:29.813Z,23.38
2022-10-14T16:13:56.744Z,19.77
2022-10-14T16:16:37.493Z,24.55
2022-10-14T16:19:04.929Z,26.55
2022-10-14T16:21:31.612Z,23.12
2022-10-14T16:24:01.248Z,26.12
2022-10-14T16:26:29.257Z,25.60
2022-10-14T16:28:56.006Z,32.83
2022-10-14T16:31:23.249Z,25.98
2022-10-14T16:33:51.238Z,24.83
2022-10-14T16:36:18.193Z,24.87
2022-10-14T16:38:44.800Z,25.70
2022-10-14T16:41:12.387Z,28.05
2022-10-14T16:43:39.088Z,29.33
2022-10-14T16:46:09.306Z,29.08
2022-10-14T16:48:38.715Z,26.85
2022-10-14T16:51:05.599Z,24.80
2022-10-14T16:53:41.475Z,34.38
2022-10-14T16:56:38.651Z,35.33
2022-10-14T16:59:07.668Z,34.72
2022-10-14T17:01:34.325Z,38.70
2022-10-14T17:04:00.908Z,37.47
2022-10-14T17:06:27.537Z,36.85
2022-10-14T17:08:54.750Z,39.47
2022-10-14T17:11:21.766Z,39.25
2022-10-14T17:13:52.713Z,39.40
2022-10-14T17:16:19.479Z,40.67
2022-10-14T17:18:46.388Z,37.33
2022-10-14T17:21:13.705Z,39.92
2022-10-14T17:23:42.426Z,33.80
2022-10-14T17:26:12.038Z,37.05
2022-10-14T17:28:39.540Z,39.30
2022-10-14T17:31:11.707Z,34.88
2022-10-14T17:33:39.424Z,39.75
2022-10-14T17:36:07.192Z,34.28
2022-10-14T17:38:35.705Z,33.65
2022-10-14T17:41:04.110Z,37.03
2022-10-14T17:43:30.919Z,37.80
2022-10-14T17:46:10.285Z,37.70
2022-10-14T17:48:38.147Z,43.83
2022-10-14T17:51:05.007Z,40.85
2022-10-14T17:53:31.564Z,42.05
2022-10-14T17:56:04.294Z,38.03
2022-10-14T17:58:32.032Z,39.28
2022-10-14T18:01:07.154Z,36.72
2022-10-14T18:03:34.995Z,40.08
2022-10-14T18:06:17.381Z,40.28
2022-10-14T18:08:45.915Z,39.60
2022-10-14T18:11:13.100Z,36.72
2022-10-14T18:16:14.366Z,37.95
2022-10-14T18:18:42.053Z,40.40
2022-10-14T18:21:09.889Z,39.80
2022-10-14T18:23:41.806Z,38.97
2022-10-14T18:26:14.895Z,43.67
2022-10-14T18:28:44.065Z,44.72
2022-10-14T18:31:16.680Z,43.80
2022-10-14T18:33:43.956Z,40.50
2022-10-14T18:36:13.147Z,38.63
2022-10-14T18:38:40.056Z,43.05
2022-10-14T18:41:14.442Z,42.00
2022-10-14T18:43:41.932Z,44.22
2022-10-14T18:46:13.865Z,40.00
2022-10-14T18:48:44.556Z,43.33
2022-10-14T18:51:11.999Z,38.28
2022-10-14T18:53:40.861Z,42.05
2022-10-14T18:56:18.348Z,40.63
2022-10-14T18:58:47.694Z,40.12
2022-10-14T19:01:15.461Z,46.45
2022-10-14T19:03:43.365Z,40.97
2022-10-14T19:06:12.542Z,47.17
2022-10-14T19:08:41.001Z,43.75
2022-10-14T19:11:17.106Z,44.13
2022-10-14T19:13:47.919Z,44.13
2022-10-14T19:16:30.701Z,48.70
2022-10-14T19:19:11.447Z,45.22
2022-10-14T19:21:39.180Z,47.28
2022-10-14T19:24:08.191Z,53.47
2022-10-14T19:26:37.076Z,43.17
2022-10-14T19:29:08.979Z,43.08
2022-10-14T19:31:41.258Z,44.63
2022-10-14T19:34:10.468Z,41.47
2022-10-14T19:36:40.256Z,45.88
2022-10-14T19:39:09.080Z,38.72
2022-10-14T19:41:43.138Z,39.70
2022-10-14T19:44:11.413Z,41.22
2022-10-14T19:46:38.286Z,44.10
2022-10-14T19:49:06.262Z,41.37
2022-10-14T19:51:34.500Z,43.38
2022-10-14T19:54:01.131Z,42.72
2022-10-14T19:56:28.764Z,40.50
2022-10-14T19:58:57.375Z,44.97
2022-10-14T20:01:27.400Z,43.15
2022-10-14T20:03:54.788Z,39.95
2022-10-14T20:06:22.031Z,40.60
2022-10-14T20:08:49.000Z,40.75
2022-10-14T20:11:17.899Z,34.85
2022-10-14T20:13:45.447Z,35.45
2022-10-14T20:29:27.935Z,41.47
2022-10-14T20:31:54.553Z,41.13
2022-10-14T20:34:21.273Z,42.45
2022-10-14T20:36:47.913Z,35.85
2022-10-14T20:39:14.562Z,38.50
2022-10-14T20:41:41.133Z,39.30
2022-10-14T20:44:07.860Z,38.28
2022-10-14T20:46:34.452Z,40.72
2022-10-14T20:49:04.318Z,39.88
2022-10-14T20:51:30.860Z,41.72
2022-10-14T20:54:04.041Z,39.13
2022-10-14T20:56:33.625Z,38.88
2022-10-14T20:59:02.991Z,40.58
2022-10-14T21:01:30.709Z,38.10
2022-10-14T21:04:00.769Z,39.10
2022-10-14T21:06:27.505Z,37.20
2022-10-14T21:08:54.309Z,38.30
2022-10-14T21:11:23.213Z,37.80
2022-10-14T21:13:53.160Z,36.92
2022-10-14T21:16:24.899Z,37.35
2022-10-14T21:18:58.017Z,37.28
2022-10-14T21:21:30.442Z,36.95
2022-10-14T21:23:58.323Z,40.38
2022-10-14T21:26:25.577Z,34.60
2022-10-14T21:28:52.500Z,35.20
2022-10-14T21:31:20.194Z,38.80
2022-10-14T21:33:48.177Z,33.30
2022-10-14T21:36:16.300Z,33.97
2022-10-14T21:39:09.718Z,32.35
2022-10-14T21:44:04.526Z,32.65
2022-10-14T21:46:31.103Z,34.40
2022-10-14T21:48:58.315Z,30.73
2022-10-14T21:51:27.674Z,31.55
2022-10-14T21:53:54.854Z,34.75
2022-10-14T21:57:24.276Z,33.35
2022-10-14T22:02:32.851Z,31.33
2022-10-14T22:04:59.471Z,35.78
2022-10-14T22:07:26.456Z,30.00
2022-10-14T22:09:53.066Z,31.73
2022-10-14T22:12:20.128Z,29.95
2022-10-14T22:14:46.682Z,32.03
2022-10-14T22:17:13.246Z,30.95
2022-10-14T22:19:39.784Z,28.65
2022-10-14T22:22:06.316Z,28.67
2022-10-14T22:24:32.988Z,29.10
2022-10-14T22:26:59.529Z,27.30
2022-10-14T22:29:45.130Z,28.50
2022-10-14T22:32:11.663Z,34.47
2022-10-14T22:34:38.269Z,29.37
2022-10-14T22:37:04.829Z,28.58
2022-10-14T22:39:31.406Z,25.17
2022-10-14T22:41:57.931Z,27.52
2022-10-14T22:44:49.230Z,27.50
2022-10-14T22:48:08.246Z,25.20
2022-10-14T22:50:35.505Z,26.15
2022-10-14T22:53:02.090Z,22.35
2022-10-14T22:55:28.825Z,24.00
2022-10-14T22:57:55.409Z,22.02
2022-10-14T23:00:22.114Z,23.48
2022-10-14T23:03:05.909Z,22.98
2022-10-14T23:05:32.943Z,26.60
2022-10-14T23:07:59.504Z,22.25
2022-10-14T23:10:26.033Z,22.30
2022-10-14T23:12:52.583Z,22.45
2022-10-14T23:15:19.472Z,25.08
2022-10-14T23:17:46.035Z,25.55
2022-10-14T23:24:23.538Z,21.90
2022-10-14T23:28:51.039Z,23.20
2022-10-14T23:31:19.953Z,22.52
2022-10-14T23:33:47.569Z,24.40
